sensor_id;sensor_type;location;lat;lon;timestamp;P1;durP1;ratioP1;P2;durP2;ratioP2
5831;SDS011;50943;51.448;7.646;2023-08-06T00:01:24;12.13;;;5.70;;
5831;SDS011;50943;51.448;7.646;2023-08-06T00:03:50;10.37;;;6.40;;
5831;SDS011;50943;51.448;7.646;2023-08-06T00:06:17;21.13;;;7.20;;
5831;SDS011;50943;51.448;7.646;2023-08-06T00:08:43;10.63;;;5.60;;
5831;SDS011;50943;51.448;7.646;2023-08-06T00:11:11;9.30;;;5.97;;
5831;SDS011;50943;51.448;7.646;2023-08-06T00:13:38;7.83;;;5.93;;
5831;SDS011;50943;51.448;7.646;2023-08-06T00:16:08;9.83;;;5.83;;
5831;SDS011;50943;51.448;7.646;2023-08-06T00:18:36;16.10;;;5.53;;
5831;SDS011;50943;51.448;7.646;2023-08-06T00:21:02;12.63;;;6.03;;
5831;SDS011;50943;51.448;7.646;2023-08-06T00:23:29;10.93;;;5.30;;
5831;SDS011;50943;51.448;7.646;2023-08-06T00:25:55;8.47;;;5.33;;
5831;SDS011;50943;51.448;7.646;2023-08-06T00:28:23;9.17;;;5.97;;
5831;SDS011;50943;51.448;7.646;2023-08-06T00:30:52;8.27;;;5.70;;
5831;SDS011;50943;51.448;7.646;2023-08-06T00:33:19;7.60;;;5.27;;
5831;SDS011;50943;51.448;7.646;2023-08-06T00:35:45;11.30;;;5.60;;
5831;SDS011;50943;51.448;7.646;2023-08-06T00:38:12;13.30;;;5.73;;
5831;SDS011;50943;51.448;7.646;2023-08-06T00:40:38;11.67;;;6.10;;
5831;SDS011;50943;51.448;7.646;2023-08-06T00:43:05;8.60;;;4.60;;
5831;SDS011;50943;51.448;7.646;2023-08-06T00:45:33;7.70;;;4.70;;
5831;SDS011;50943;51.448;7.646;2023-08-06T00:48:01;9.27;;;5.20;;
5831;SDS011;50943;51.448;7.646;2023-08-06T00:50:28;11.13;;;4.80;;
5831;SDS011;50943;51.448;7.646;2023-08-06T00:52:54;10.70;;;5.43;;
5831;SDS011;50943;51.448;7.646;2023-08-06T00:55:21;8.23;;;5.10;;
5831;SDS011;50943;51.448;7.646;2023-08-06T00:57:48;6.90;;;5.20;;
5831;SDS011;50943;51.448;7.646;2023-08-06T01:00:16;14.93;;;5.70;;
5831;SDS011;50943;51.448;7.646;2023-08-06T01:02:44;8.10;;;5.37;;
5831;SDS011;50943;51.448;7.646;2023-08-06T01:05:10;9.57;;;5.47;;
5831;SDS011;50943;51.448;7.646;2023-08-06T01:07:44;8.70;;;5.77;;
5831;SDS011;50943;51.448;7.646;2023-08-06T01:10:23;7.83;;;5.50;;
5831;SDS011;50943;51.448;7.646;2023-08-06T01:12:58;7.57;;;5.50;;
5831;SDS011;50943;51.448;7.646;2023-08-06T01:15:31;7.77;;;5.03;;
5831;SDS011;50943;51.448;7.646;2023-08-06T01:18:00;7.97;;;5.50;;
5831;SDS011;50943;51.448;7.646;2023-08-06T01:20:29;8.37;;;5.30;;
5831;SDS011;50943;51.448;7.646;2023-08-06T01:22:56;11.20;;;5.20;;
5831;SDS011;50943;51.448;7.646;2023-08-06T01:25:23;7.97;;;5.13;;
5831;SDS011;50943;51.448;7.646;2023-08-06T01:27:55;10.13;;;5.80;;
5831;SDS011;50943;51.448;7.646;2023-08-06T01:30:25;7.33;;;5.20;;
5831;SDS011;50943;51.448;7.646;2023-08-06T01:32:53;5.80;;;4.80;;
5831;SDS011;50943;51.448;7.646;2023-08-06T01:35:23;7.17;;;5.10;;
5831;SDS011;50943;51.448;7.646;2023-08-06T01:37:52;6.83;;;4.90;;
5831;SDS011;50943;51.448;7.646;2023-08-06T01:40:21;9.57;;;5.40;;
5831;SDS011;50943;51.448;7.646;2023-08-06T01:42:48;8.33;;;4.73;;
5831;SDS011;50943;51.448;7.646;2023-08-06T01:45:14;7.83;;;5.20;;
5831;SDS011;50943;51.448;7.646;2023-08-06T01:47:40;8.90;;;4.63;;
5831;SDS011;50943;51.448;7.646;2023-08-06T01:50:08;8.07;;;4.70;;
5831;SDS011;50943;51.448;7.646;2023-08-06T01:52:34;9.83;;;4.63;;
5831;SDS011;50943;51.448;7.646;2023-08-06T01:55:02;12.00;;;4.83;;
5831;SDS011;50943;51.448;7.646;2023-08-06T01:57:29;8.20;;;5.20;;
5831;SDS011;50943;51.448;7.646;2023-08-06T01:59:56;10.17;;;5.20;;
5831;SDS011;50943;51.448;7.646;2023-08-06T02:02:22;7.30;;;5.10;;
5831;SDS011;50943;51.448;7.646;2023-08-06T02:04:49;6.50;;;4.70;;
5831;SDS011;50943;51.448;7.646;2023-08-06T02:07:16;7.80;;;5.13;;
5831;SDS011;50943;51.448;7.646;2023-08-06T02:09:42;9.03;;;4.77;;
5831;SDS011;50943;51.448;7.646;2023-08-06T02:12:10;7.70;;;5.20;;
5831;SDS011;50943;51.448;7.646;2023-08-06T02:14:36;7.10;;;5.00;;
5831;SDS011;50943;51.448;7.646;2023-08-06T02:17:03;8.70;;;5.20;;
5831;SDS011;50943;51.448;7.646;2023-08-06T02:19:29;7.30;;;4.67;;
5831;SDS011;50943;51.448;7.646;2023-08-06T02:21:56;8.10;;;5.00;;
5831;SDS011;50943;51.448;7.646;2023-08-06T02:24:22;6.10;;;4.60;;
5831;SDS011;50943;51.448;7.646;2023-08-06T02:26:49;7.87;;;4.97;;
5831;SDS011;50943;51.448;7.646;2023-08-06T02:29:17;8.33;;;4.53;;
5831;SDS011;50943;51.448;7.646;2023-08-06T02:31:44;6.33;;;4.50;;
5831;SDS011;50943;51.448;7.646;2023-08-06T02:34:10;10.70;;;5.23;;
5831;SDS011;50943;51.448;7.646;2023-08-06T02:36:37;11.80;;;5.37;;
5831;SDS011;50943;51.448;7.646;2023-08-06T02:39:03;8.30;;;5.23;;
5831;SDS011;50943;51.448;7.646;2023-08-06T02:41:30;9.30;;;4.50;;
5831;SDS011;50943;51.448;7.646;2023-08-06T02:43:57;12.50;;;5.40;;
5831;SDS011;50943;51.448;7.646;2023-08-06T02:46:25;9.87;;;5.10;;
5831;SDS011;50943;51.448;7.646;2023-08-06T02:48:51;9.40;;;6.00;;
5831;SDS011;50943;51.448;7.646;2023-08-06T02:51:18;7.03;;;5.33;;
5831;SDS011;50943;51.448;7.646;2023-08-06T02:53:44;9.90;;;5.30;;
5831;SDS011;50943;51.448;7.646;2023-08-06T02:56:11;17.03;;;5.17;;
5831;SDS011;50943;51.448;7.646;2023-08-06T02:58:37;6.27;;;5.00;;
5831;SDS011;50943;51.448;7.646;2023-08-06T03:01:05;10.70;;;5.80;;
5831;SDS011;50943;51.448;7.646;2023-08-06T03:03:34;6.67;;;4.90;;
5831;SDS011;50943;51.448;7.646;2023-08-06T03:06:00;8.77;;;5.23;;
5831;SDS011;50943;51.448;7.646;2023-08-06T03:08:27;11.83;;;5.70;;
5831;SDS011;50943;51.448;7.646;2023-08-06T03:10:54;10.17;;;6.10;;
5831;SDS011;50943;51.448;7.646;2023-08-06T03:13:20;8.57;;;5.50;;
5831;SDS011;50943;51.448;7.646;2023-08-06T03:15:53;7.07;;;5.33;;
5831;SDS011;50943;51.448;7.646;2023-08-06T03:18:20;9.83;;;5.60;;
5831;SDS011;50943;51.448;7.646;2023-08-06T03:20:48;7.20;;;5.40;;
5831;SDS011;50943;51.448;7.646;2023-08-06T03:23:15;6.90;;;5.53;;
5831;SDS011;50943;51.448;7.646;2023-08-06T03:25:41;7.70;;;4.63;;
5831;SDS011;50943;51.448;7.646;2023-08-06T03:28:08;6.40;;;4.73;;
5831;SDS011;50943;51.448;7.646;2023-08-06T03:30:34;11.80;;;5.43;;
5831;SDS011;50943;51.448;7.646;2023-08-06T03:33:01;8.17;;;5.03;;
5831;SDS011;50943;51.448;7.646;2023-08-06T03:35:27;6.90;;;4.43;;
5831;SDS011;50943;51.448;7.646;2023-08-06T03:37:55;7.70;;;4.73;;
5831;SDS011;50943;51.448;7.646;2023-08-06T03:40:22;6.73;;;4.97;;
5831;SDS011;50943;51.448;7.646;2023-08-06T03:42:48;5.57;;;4.40;;
5831;SDS011;50943;51.448;7.646;2023-08-06T03:45:15;10.70;;;4.70;;
5831;SDS011;50943;51.448;7.646;2023-08-06T03:47:41;8.93;;;4.70;;
5831;SDS011;50943;51.448;7.646;2023-08-06T03:50:08;7.40;;;4.67;;
5831;SDS011;50943;51.448;7.646;2023-08-06T03:52:35;7.60;;;4.77;;
5831;SDS011;50943;51.448;7.646;2023-08-06T03:55:03;9.97;;;4.00;;
5831;SDS011;50943;51.448;7.646;2023-08-06T03:57:30;12.30;;;4.53;;
5831;SDS011;50943;51.448;7.646;2023-08-06T03:59:56;7.73;;;4.40;;
5831;SDS011;50943;51.448;7.646;2023-08-06T04:02:23;8.03;;;4.53;;
5831;SDS011;50943;51.448;7.646;2023-08-06T04:04:49;5.40;;;4.50;;
5831;SDS011;50943;51.448;7.646;2023-08-06T04:07:18;9.30;;;4.73;;
5831;SDS011;50943;51.448;7.646;2023-08-06T04:09:54;9.13;;;4.47;;
5831;SDS011;50943;51.448;7.646;2023-08-06T04:12:24;8.60;;;4.50;;
5831;SDS011;50943;51.448;7.646;2023-08-06T04:14:51;10.90;;;4.73;;
5831;SDS011;50943;51.448;7.646;2023-08-06T04:17:17;9.00;;;4.60;;
5831;SDS011;50943;51.448;7.646;2023-08-06T04:19:46;6.13;;;4.50;;
5831;SDS011;50943;51.448;7.646;2023-08-06T04:22:13;6.10;;;4.70;;
5831;SDS011;50943;51.448;7.646;2023-08-06T04:24:40;7.00;;;4.17;;
5831;SDS011;50943;51.448;7.646;2023-08-06T04:27:07;5.27;;;4.10;;
5831;SDS011;50943;51.448;7.646;2023-08-06T04:29:35;5.60;;;4.07;;
5831;SDS011;50943;51.448;7.646;2023-08-06T04:32:03;6.13;;;4.53;;
5831;SDS011;50943;51.448;7.646;2023-08-06T04:34:30;7.30;;;4.50;;
5831;SDS011;50943;51.448;7.646;2023-08-06T04:36:56;8.13;;;4.57;;
5831;SDS011;50943;51.448;7.646;2023-08-06T04:39:23;5.00;;;3.80;;
5831;SDS011;50943;51.448;7.646;2023-08-06T04:41:49;7.63;;;4.93;;
5831;SDS011;50943;51.448;7.646;2023-08-06T04:44:16;7.40;;;4.90;;
5831;SDS011;50943;51.448;7.646;2023-08-06T04:46:44;14.83;;;4.70;;
5831;SDS011;50943;51.448;7.646;2023-08-06T04:49:10;6.60;;;5.43;;
5831;SDS011;50943;51.448;7.646;2023-08-06T04:51:37;8.57;;;4.90;;
5831;SDS011;50943;51.448;7.646;2023-08-06T04:54:03;13.50;;;4.80;;
5831;SDS011;50943;51.448;7.646;2023-08-06T04:56:30;11.60;;;4.60;;
5831;SDS011;50943;51.448;7.646;2023-08-06T04:58:57;19.23;;;5.00;;
5831;SDS011;50943;51.448;7.646;2023-08-06T05:01:23;10.80;;;5.27;;
5831;SDS011;50943;51.448;7.646;2023-08-06T05:03:50;7.63;;;5.40;;
5831;SDS011;50943;51.448;7.646;2023-08-06T05:06:17;8.10;;;4.67;;
5831;SDS011;50943;51.448;7.646;2023-08-06T05:08:43;9.80;;;5.77;;
5831;SDS011;50943;51.448;7.646;2023-08-06T05:11:10;8.20;;;4.90;;
5831;SDS011;50943;51.448;7.646;2023-08-06T05:13:37;7.17;;;4.67;;
5831;SDS011;50943;51.448;7.646;2023-08-06T05:16:03;7.67;;;5.00;;
5831;SDS011;50943;51.448;7.646;2023-08-06T05:18:30;14.00;;;5.37;;
5831;SDS011;50943;51.448;7.646;2023-08-06T05:20:57;6.67;;;4.20;;
5831;SDS011;50943;51.448;7.646;2023-08-06T05:23:24;8.00;;;5.10;;
5831;SDS011;50943;51.448;7.646;2023-08-06T05:25:50;6.80;;;4.40;;
5831;SDS011;50943;51.448;7.646;2023-08-06T05:28:20;8.00;;;4.50;;
5831;SDS011;50943;51.448;7.646;2023-08-06T05:30:46;7.77;;;4.50;;
5831;SDS011;50943;51.448;7.646;2023-08-06T05:33:13;9.40;;;4.83;;
5831;SDS011;50943;51.448;7.646;2023-08-06T05:35:40;6.43;;;4.33;;
5831;SDS011;50943;51.448;7.646;2023-08-06T05:38:08;7.47;;;5.20;;
5831;SDS011;50943;51.448;7.646;2023-08-06T05:40:35;9.97;;;4.83;;
5831;SDS011;50943;51.448;7.646;2023-08-06T05:43:01;7.37;;;4.07;;
5831;SDS011;50943;51.448;7.646;2023-08-06T05:45:29;7.70;;;4.93;;
5831;SDS011;50943;51.448;7.646;2023-08-06T05:47:56;8.13;;;5.97;;
5831;SDS011;50943;51.448;7.646;2023-08-06T05:50:23;8.93;;;5.63;;
5831;SDS011;50943;51.448;7.646;2023-08-06T05:52:50;9.50;;;6.20;;
5831;SDS011;50943;51.448;7.646;2023-08-06T05:55:18;14.30;;;6.10;;
5831;SDS011;50943;51.448;7.646;2023-08-06T05:57:44;10.27;;;6.20;;
5831;SDS011;50943;51.448;7.646;2023-08-06T06:00:11;8.27;;;5.53;;
5831;SDS011;50943;51.448;7.646;2023-08-06T06:02:38;10.60;;;5.87;;
5831;SDS011;50943;51.448;7.646;2023-08-06T06:05:04;10.07;;;5.43;;
5831;SDS011;50943;51.448;7.646;2023-08-06T06:07:31;7.50;;;5.00;;
5831;SDS011;50943;51.448;7.646;2023-08-06T06:09:57;9.17;;;4.67;;
5831;SDS011;50943;51.448;7.646;2023-08-06T06:12:25;5.63;;;4.40;;
5831;SDS011;50943;51.448;7.646;2023-08-06T06:14:52;5.77;;;4.40;;
5831;SDS011;50943;51.448;7.646;2023-08-06T06:17:18;5.50;;;4.07;;
5831;SDS011;50943;51.448;7.646;2023-08-06T06:19:45;5.40;;;3.43;;
5831;SDS011;50943;51.448;7.646;2023-08-06T06:22:11;5.33;;;3.53;;
5831;SDS011;50943;51.448;7.646;2023-08-06T06:24:38;7.53;;;3.60;;
5831;SDS011;50943;51.448;7.646;2023-08-06T06:27:05;5.40;;;3.27;;
5831;SDS011;50943;51.448;7.646;2023-08-06T06:29:33;6.10;;;3.40;;
5831;SDS011;50943;51.448;7.646;2023-08-06T06:31:59;6.07;;;3.50;;
5831;SDS011;50943;51.448;7.646;2023-08-06T06:34:26;4.90;;;2.90;;
5831;SDS011;50943;51.448;7.646;2023-08-06T06:36:52;4.60;;;3.10;;
5831;SDS011;50943;51.448;7.646;2023-08-06T06:39:20;5.60;;;3.07;;
5831;SDS011;50943;51.448;7.646;2023-08-06T06:41:47;6.20;;;2.60;;
5831;SDS011;50943;51.448;7.646;2023-08-06T06:44:13;3.50;;;2.53;;
5831;SDS011;50943;51.448;7.646;2023-08-06T06:46:42;5.40;;;2.57;;
5831;SDS011;50943;51.448;7.646;2023-08-06T06:49:08;3.87;;;2.13;;
5831;SDS011;50943;51.448;7.646;2023-08-06T06:51:35;4.10;;;2.10;;
5831;SDS011;50943;51.448;7.646;2023-08-06T06:54:01;5.83;;;2.17;;
5831;SDS011;50943;51.448;7.646;2023-08-06T06:56:28;6.13;;;2.50;;
5831;SDS011;50943;51.448;7.646;2023-08-06T06:58:54;5.60;;;2.20;;
5831;SDS011;50943;51.448;7.646;2023-08-06T07:01:20;3.17;;;2.07;;
5831;SDS011;50943;51.448;7.646;2023-08-06T07:03:48;7.07;;;2.30;;
5831;SDS011;50943;51.448;7.646;2023-08-06T07:06:15;3.70;;;2.20;;
5831;SDS011;50943;51.448;7.646;2023-08-06T07:08:43;4.60;;;2.90;;
5831;SDS011;50943;51.448;7.646;2023-08-06T07:11:10;7.20;;;2.77;;
5831;SDS011;50943;51.448;7.646;2023-08-06T07:13:36;4.00;;;2.10;;
5831;SDS011;50943;51.448;7.646;2023-08-06T07:16:03;2.70;;;1.73;;
5831;SDS011;50943;51.448;7.646;2023-08-06T07:18:29;4.50;;;2.57;;
5831;SDS011;50943;51.448;7.646;2023-08-06T07:20:57;3.43;;;1.83;;
5831;SDS011;50943;51.448;7.646;2023-08-06T07:23:25;7.07;;;2.50;;
5831;SDS011;50943;51.448;7.646;2023-08-06T07:25:51;3.40;;;1.77;;
5831;SDS011;50943;51.448;7.646;2023-08-06T07:28:18;3.03;;;1.97;;
5831;SDS011;50943;51.448;7.646;2023-08-06T07:30:45;5.37;;;2.40;;
5831;SDS011;50943;51.448;7.646;2023-08-06T07:33:11;3.57;;;2.10;;
5831;SDS011;50943;51.448;7.646;2023-08-06T07:35:38;5.60;;;3.00;;
5831;SDS011;50943;51.448;7.646;2023-08-06T07:38:06;5.73;;;2.17;;
5831;SDS011;50943;51.448;7.646;2023-08-06T07:40:35;4.37;;;2.00;;
5831;SDS011;50943;51.448;7.646;2023-08-06T07:43:01;4.13;;;1.80;;
5831;SDS011;50943;51.448;7.646;2023-08-06T07:45:28;3.63;;;2.00;;
5831;SDS011;50943;51.448;7.646;2023-08-06T07:47:58;3.93;;;1.67;;
5831;SDS011;50943;51.448;7.646;2023-08-06T07:50:25;2.73;;;1.63;;
5831;SDS011;50943;51.448;7.646;2023-08-06T07:52:51;7.03;;;2.13;;
5831;SDS011;50943;51.448;7.646;2023-08-06T07:55:19;2.60;;;1.70;;
5831;SDS011;50943;51.448;7.646;2023-08-06T07:57:46;6.73;;;2.13;;
5831;SDS011;50943;51.448;7.646;2023-08-06T08:00:12;6.13;;;1.97;;
5831;SDS011;50943;51.448;7.646;2023-08-06T08:02:39;3.40;;;1.90;;
5831;SDS011;50943;51.448;7.646;2023-08-06T08:05:06;3.77;;;2.10;;
5831;SDS011;50943;51.448;7.646;2023-08-06T08:07:33;2.60;;;1.90;;
5831;SDS011;50943;51.448;7.646;2023-08-06T08:10:00;3.53;;;2.10;;
5831;SDS011;50943;51.448;7.646;2023-08-06T08:12:27;4.47;;;2.23;;
5831;SDS011;50943;51.448;7.646;2023-08-06T08:14:54;4.00;;;2.03;;
5831;SDS011;50943;51.448;7.646;2023-08-06T08:17:20;4.87;;;1.93;;
5831;SDS011;50943;51.448;7.646;2023-08-06T08:19:47;3.80;;;1.90;;
5831;SDS011;50943;51.448;7.646;2023-08-06T08:22:13;8.67;;;2.60;;
5831;SDS011;50943;51.448;7.646;2023-08-06T08:24:40;5.00;;;2.17;;
5831;SDS011;50943;51.448;7.646;2023-08-06T08:27:06;6.30;;;2.10;;
5831;SDS011;50943;51.448;7.646;2023-08-06T08:29:34;3.07;;;2.00;;
5831;SDS011;50943;51.448;7.646;2023-08-06T08:32:01;6.87;;;2.47;;
5831;SDS011;50943;51.448;7.646;2023-08-06T08:34:27;7.90;;;2.70;;
5831;SDS011;50943;51.448;7.646;2023-08-06T08:36:54;4.13;;;2.60;;
5831;SDS011;50943;51.448;7.646;2023-08-06T08:39:20;4.23;;;2.20;;
5831;SDS011;50943;51.448;7.646;2023-08-06T08:41:47;3.50;;;2.37;;
5831;SDS011;50943;51.448;7.646;2023-08-06T08:44:13;3.00;;;2.10;;
5831;SDS011;50943;51.448;7.646;2023-08-06T08:46:42;6.63;;;2.30;;
5831;SDS011;50943;51.448;7.646;2023-08-06T08:49:09;6.30;;;2.60;;
5831;SDS011;50943;51.448;7.646;2023-08-06T08:51:37;5.07;;;2.37;;
5831;SDS011;50943;51.448;7.646;2023-08-06T08:54:04;4.90;;;2.57;;
5831;SDS011;50943;51.448;7.646;2023-08-06T08:56:30;4.33;;;2.33;;
5831;SDS011;50943;51.448;7.646;2023-08-06T08:58:57;4.40;;;2.43;;
5831;SDS011;50943;51.448;7.646;2023-08-06T09:01:24;5.57;;;2.87;;
5831;SDS011;50943;51.448;7.646;2023-08-06T09:03:53;6.90;;;3.90;;
5831;SDS011;50943;51.448;7.646;2023-08-06T09:06:21;4.40;;;3.20;;
5831;SDS011;50943;51.448;7.646;2023-08-06T09:08:50;7.20;;;2.80;;
5831;SDS011;50943;51.448;7.646;2023-08-06T09:11:19;4.53;;;3.37;;
5831;SDS011;50943;51.448;7.646;2023-08-06T09:13:47;5.43;;;3.00;;
5831;SDS011;50943;51.448;7.646;2023-08-06T09:16:13;4.33;;;3.30;;
5831;SDS011;50943;51.448;7.646;2023-08-06T09:18:40;4.10;;;2.67;;
5831;SDS011;50943;51.448;7.646;2023-08-06T09:21:07;5.57;;;2.90;;
5831;SDS011;50943;51.448;7.646;2023-08-06T09:23:40;4.90;;;3.10;;
5831;SDS011;50943;51.448;7.646;2023-08-06T09:26:06;5.70;;;3.10;;
5831;SDS011;50943;51.448;7.646;2023-08-06T09:28:39;4.83;;;3.00;;
5831;SDS011;50943;51.448;7.646;2023-08-06T09:31:07;6.23;;;2.80;;
5831;SDS011;50943;51.448;7.646;2023-08-06T09:33:35;8.00;;;3.07;;
5831;SDS011;50943;51.448;7.646;2023-08-06T09:36:08;6.20;;;3.00;;
5831;SDS011;50943;51.448;7.646;2023-08-06T09:38:37;5.60;;;3.40;;
5831;SDS011;50943;51.448;7.646;2023-08-06T09:41:04;5.20;;;3.53;;
5831;SDS011;50943;51.448;7.646;2023-08-06T09:43:30;6.60;;;3.53;;
5831;SDS011;50943;51.448;7.646;2023-08-06T09:46:10;3.60;;;2.20;;
5831;SDS011;50943;51.448;7.646;2023-08-06T09:48:38;5.03;;;2.67;;
5831;SDS011;50943;51.448;7.646;2023-08-06T09:51:05;3.40;;;2.03;;
5831;SDS011;50943;51.448;7.646;2023-08-06T09:53:35;3.47;;;2.40;;
5831;SDS011;50943;51.448;7.646;2023-08-06T09:56:03;4.00;;;2.63;;
5831;SDS011;50943;51.448;7.646;2023-08-06T09:58:30;3.07;;;2.20;;
5831;SDS011;50943;51.448;7.646;2023-08-06T10:00:57;4.70;;;2.30;;
5831;SDS011;50943;51.448;7.646;2023-08-06T10:03:24;3.60;;;2.10;;
5831;SDS011;50943;51.448;7.646;2023-08-06T10:05:51;4.63;;;2.07;;
5831;SDS011;50943;51.448;7.646;2023-08-06T10:08:19;4.47;;;2.57;;
5831;SDS011;50943;51.448;7.646;2023-08-06T10:10:47;2.80;;;1.80;;
5831;SDS011;50943;51.448;7.646;2023-08-06T10:13:13;3.67;;;1.90;;
5831;SDS011;50943;51.448;7.646;2023-08-06T10:15:40;4.27;;;1.90;;
5831;SDS011;50943;51.448;7.646;2023-08-06T10:18:07;2.80;;;1.50;;
5831;SDS011;50943;51.448;7.646;2023-08-06T10:20:34;4.80;;;2.00;;
5831;SDS011;50943;51.448;7.646;2023-08-06T10:23:01;3.53;;;1.83;;
5831;SDS011;50943;51.448;7.646;2023-08-06T10:25:31;3.93;;;1.80;;
5831;SDS011;50943;51.448;7.646;2023-08-06T10:27:59;3.40;;;2.00;;
5831;SDS011;50943;51.448;7.646;2023-08-06T10:30:26;3.47;;;1.90;;
5831;SDS011;50943;51.448;7.646;2023-08-06T10:32:54;3.57;;;1.80;;
5831;SDS011;50943;51.448;7.646;2023-08-06T10:35:29;3.00;;;1.60;;
5831;SDS011;50943;51.448;7.646;2023-08-06T10:37:59;3.87;;;1.83;;
5831;SDS011;50943;51.448;7.646;2023-08-06T10:40:29;5.30;;;1.80;;
5831;SDS011;50943;51.448;7.646;2023-08-06T10:42:59;4.43;;;2.07;;
5831;SDS011;50943;51.448;7.646;2023-08-06T10:45:26;7.43;;;3.93;;
5831;SDS011;50943;51.448;7.646;2023-08-06T10:47:54;4.87;;;3.40;;
5831;SDS011;50943;51.448;7.646;2023-08-06T10:50:21;7.50;;;4.10;;
5831;SDS011;50943;51.448;7.646;2023-08-06T10:52:47;6.87;;;4.70;;
5831;SDS011;50943;51.448;7.646;2023-08-06T10:55:14;7.60;;;5.70;;
5831;SDS011;50943;51.448;7.646;2023-08-06T10:57:41;9.07;;;7.00;;
5831;SDS011;50943;51.448;7.646;2023-08-06T11:00:10;13.30;;;9.97;;
5831;SDS011;50943;51.448;7.646;2023-08-06T11:02:39;19.43;;;15.07;;
5831;SDS011;50943;51.448;7.646;2023-08-06T11:05:06;14.70;;;13.20;;
5831;SDS011;50943;51.448;7.646;2023-08-06T11:07:33;16.97;;;12.97;;
5831;SDS011;50943;51.448;7.646;2023-08-06T11:10:03;13.03;;;9.30;;
5831;SDS011;50943;51.448;7.646;2023-08-06T11:12:31;10.13;;;9.03;;
5831;SDS011;50943;51.448;7.646;2023-08-06T11:14:57;9.10;;;8.17;;
5831;SDS011;50943;51.448;7.646;2023-08-06T11:17:25;9.97;;;7.80;;
5831;SDS011;50943;51.448;7.646;2023-08-06T11:19:52;9.20;;;7.27;;
5831;SDS011;50943;51.448;7.646;2023-08-06T11:22:20;8.57;;;6.60;;
5831;SDS011;50943;51.448;7.646;2023-08-06T11:24:46;7.70;;;7.00;;
5831;SDS011;50943;51.448;7.646;2023-08-06T11:27:13;9.03;;;6.70;;
5831;SDS011;50943;51.448;7.646;2023-08-06T11:29:40;6.80;;;6.20;;
5831;SDS011;50943;51.448;7.646;2023-08-06T11:32:07;6.07;;;5.47;;
5831;SDS011;50943;51.448;7.646;2023-08-06T11:34:35;7.20;;;5.10;;
5831;SDS011;50943;51.448;7.646;2023-08-06T11:37:02;6.80;;;4.67;;
5831;SDS011;50943;51.448;7.646;2023-08-06T11:39:30;5.30;;;4.80;;
5831;SDS011;50943;51.448;7.646;2023-08-06T11:41:57;3.77;;;2.90;;
5831;SDS011;50943;51.448;7.646;2023-08-06T11:44:25;4.27;;;3.43;;
5831;SDS011;50943;51.448;7.646;2023-08-06T11:46:52;4.10;;;3.40;;
5831;SDS011;50943;51.448;7.646;2023-08-06T11:49:21;3.57;;;2.53;;
5831;SDS011;50943;51.448;7.646;2023-08-06T11:52:06;3.27;;;2.97;;
5831;SDS011;50943;51.448;7.646;2023-08-06T11:54:35;4.53;;;3.87;;
5831;SDS011;50943;51.448;7.646;2023-08-06T11:57:02;12.63;;;3.50;;
5831;SDS011;50943;51.448;7.646;2023-08-06T11:59:29;3.67;;;2.97;;
5831;SDS011;50943;51.448;7.646;2023-08-06T12:01:55;4.00;;;2.30;;
5831;SDS011;50943;51.448;7.646;2023-08-06T12:04:22;9.90;;;2.63;;
5831;SDS011;50943;51.448;7.646;2023-08-06T12:06:49;5.30;;;2.60;;
5831;SDS011;50943;51.448;7.646;2023-08-06T12:09:16;4.33;;;3.03;;
5831;SDS011;50943;51.448;7.646;2023-08-06T12:11:43;4.27;;;3.23;;
5831;SDS011;50943;51.448;7.646;2023-08-06T12:14:09;6.00;;;3.80;;
5831;SDS011;50943;51.448;7.646;2023-08-06T12:16:36;6.30;;;5.00;;
5831;SDS011;50943;51.448;7.646;2023-08-06T12:19:02;4.73;;;4.33;;
5831;SDS011;50943;51.448;7.646;2023-08-06T12:21:29;5.20;;;4.50;;
5831;SDS011;50943;51.448;7.646;2023-08-06T12:23:57;8.40;;;4.80;;
5831;SDS011;50943;51.448;7.646;2023-08-06T12:26:24;5.57;;;3.70;;
5831;SDS011;50943;51.448;7.646;2023-08-06T12:28:50;4.60;;;4.00;;
5831;SDS011;50943;51.448;7.646;2023-08-06T12:31:20;6.03;;;4.43;;
5831;SDS011;50943;51.448;7.646;2023-08-06T12:33:46;7.40;;;4.60;;
5831;SDS011;50943;51.448;7.646;2023-08-06T12:36:13;5.83;;;5.00;;
5831;SDS011;50943;51.448;7.646;2023-08-06T12:38:39;7.10;;;4.80;;
5831;SDS011;50943;51.448;7.646;2023-08-06T12:41:07;8.00;;;5.33;;
5831;SDS011;50943;51.448;7.646;2023-08-06T12:43:33;6.47;;;5.00;;
5831;SDS011;50943;51.448;7.646;2023-08-06T12:46:00;5.90;;;5.10;;
5831;SDS011;50943;51.448;7.646;2023-08-06T12:48:26;6.20;;;5.47;;
5831;SDS011;50943;51.448;7.646;2023-08-06T12:50:53;6.50;;;4.70;;
5831;SDS011;50943;51.448;7.646;2023-08-06T12:53:20;5.43;;;4.83;;
5831;SDS011;50943;51.448;7.646;2023-08-06T12:55:48;6.50;;;4.87;;
5831;SDS011;50943;51.448;7.646;2023-08-06T12:58:16;7.13;;;5.80;;
5831;SDS011;50943;51.448;7.646;2023-08-06T13:00:42;7.33;;;5.50;;
5831;SDS011;50943;51.448;7.646;2023-08-06T13:03:09;6.30;;;5.03;;
5831;SDS011;50943;51.448;7.646;2023-08-06T13:05:35;7.97;;;6.20;;
5831;SDS011;50943;51.448;7.646;2023-08-06T13:08:02;7.07;;;5.77;;
5831;SDS011;50943;51.448;7.646;2023-08-06T13:10:29;6.07;;;5.27;;
5831;SDS011;50943;51.448;7.646;2023-08-06T13:12:56;6.43;;;5.80;;
5831;SDS011;50943;51.448;7.646;2023-08-06T13:15:24;7.60;;;6.10;;
5831;SDS011;50943;51.448;7.646;2023-08-06T13:17:50;6.53;;;5.87;;
5831;SDS011;50943;51.448;7.646;2023-08-06T13:20:17;7.40;;;6.60;;
5831;SDS011;50943;51.448;7.646;2023-08-06T13:22:44;6.60;;;5.90;;
5831;SDS011;50943;51.448;7.646;2023-08-06T13:25:11;6.57;;;5.10;;
5831;SDS011;50943;51.448;7.646;2023-08-06T13:27:39;4.73;;;3.43;;
5831;SDS011;50943;51.448;7.646;2023-08-06T13:30:06;5.83;;;4.50;;
5831;SDS011;50943;51.448;7.646;2023-08-06T13:32:35;15.40;;;3.40;;
5831;SDS011;50943;51.448;7.646;2023-08-06T13:35:02;4.27;;;3.10;;
5831;SDS011;50943;51.448;7.646;2023-08-06T13:37:29;4.10;;;2.37;;
5831;SDS011;50943;51.448;7.646;2023-08-06T13:39:55;3.33;;;2.00;;
5831;SDS011;50943;51.448;7.646;2023-08-06T13:42:22;2.73;;;1.47;;
5831;SDS011;50943;51.448;7.646;2023-08-06T13:44:49;3.93;;;1.60;;
5831;SDS011;50943;51.448;7.646;2023-08-06T13:47:15;2.60;;;1.50;;
5831;SDS011;50943;51.448;7.646;2023-08-06T13:49:45;2.40;;;1.60;;
5831;SDS011;50943;51.448;7.646;2023-08-06T13:52:11;2.77;;;1.60;;
5831;SDS011;50943;51.448;7.646;2023-08-06T13:54:38;1.90;;;1.10;;
5831;SDS011;50943;51.448;7.646;2023-08-06T13:57:04;2.47;;;1.23;;
5831;SDS011;50943;51.448;7.646;2023-08-06T13:59:31;2.07;;;1.07;;
5831;SDS011;50943;51.448;7.646;2023-08-06T14:01:57;1.90;;;1.20;;
5831;SDS011;50943;51.448;7.646;2023-08-06T14:04:25;2.77;;;1.20;;
5831;SDS011;50943;51.448;7.646;2023-08-06T14:06:52;3.33;;;1.17;;
5831;SDS011;50943;51.448;7.646;2023-08-06T14:09:19;2.20;;;1.20;;
5831;SDS011;50943;51.448;7.646;2023-08-06T14:11:46;1.50;;;1.10;;
5831;SDS011;50943;51.448;7.646;2023-08-06T14:14:12;3.30;;;1.70;;
5831;SDS011;50943;51.448;7.646;2023-08-06T14:16:39;2.90;;;1.80;;
5831;SDS011;50943;51.448;7.646;2023-08-06T14:19:05;3.50;;;1.70;;
5831;SDS011;50943;51.448;7.646;2023-08-06T14:21:31;6.30;;;1.47;;
5831;SDS011;50943;51.448;7.646;2023-08-06T14:23:59;3.23;;;1.30;;
5831;SDS011;50943;51.448;7.646;2023-08-06T14:26:26;3.33;;;1.50;;
5831;SDS011;50943;51.448;7.646;2023-08-06T14:28:52;2.40;;;1.77;;
5831;SDS011;50943;51.448;7.646;2023-08-06T14:31:19;2.77;;;1.80;;
5831;SDS011;50943;51.448;7.646;2023-08-06T14:33:46;3.20;;;1.83;;
5831;SDS011;50943;51.448;7.646;2023-08-06T14:36:12;4.13;;;2.20;;
5831;SDS011;50943;51.448;7.646;2023-08-06T14:38:39;2.63;;;1.70;;
5831;SDS011;50943;51.448;7.646;2023-08-06T14:41:06;4.17;;;2.03;;
5831;SDS011;50943;51.448;7.646;2023-08-06T14:43:32;2.60;;;1.70;;
5831;SDS011;50943;51.448;7.646;2023-08-06T14:45:59;2.23;;;1.77;;
5831;SDS011;50943;51.448;7.646;2023-08-06T14:48:25;2.40;;;1.63;;
5831;SDS011;50943;51.448;7.646;2023-08-06T14:50:53;5.07;;;1.80;;
5831;SDS011;50943;51.448;7.646;2023-08-06T14:53:19;2.87;;;1.77;;
5831;SDS011;50943;51.448;7.646;2023-08-06T14:55:46;3.73;;;2.00;;
5831;SDS011;50943;51.448;7.646;2023-08-06T14:58:14;2.67;;;1.87;;
5831;SDS011;50943;51.448;7.646;2023-08-06T15:00:40;2.40;;;1.90;;